sensor_id;sensor_type;location;lat;lon;timestamp;pressure;altitude;pressure_sealevel;temperature;humidity
40998;BME280;26740;45.944;12.480;2022-09-02T00:01:00;101250.72;;;18.03;100.00
40998;BME280;26740;45.944;12.480;2022-09-02T00:03:31;101251.41;;;17.90;100.00
40998;BME280;26740;45.944;12.480;2022-09-02T00:06:02;101247.97;;;17.93;100.00
40998;BME280;26740;45.944;12.480;2022-09-02T00:08:29;101240.16;;;17.85;100.00
40998;BME280;26740;45.944;12.480;2022-09-02T00:11:00;101247.47;;;17.80;100.00
40998;BME280;26740;45.944;12.480;2022-09-02T00:13:29;101237.34;;;17.85;100.00
40998;BME280;26740;45.944;12.480;2022-09-02T00:15:54;101241.81;;;17.91;100.00
40998;BME280;26740;45.944;12.480;2022-09-02T00:18:21;101238.94;;;18.01;100.00
40998;BME280;26740;45.944;12.480;2022-09-02T00:20:49;101236.94;;;18.02;100.00
40998;BME280;26740;45.944;12.480;2022-09-02T00:23:15;101230.47;;;18.06;100.00
40998;BME280;26740;45.944;12.480;2022-09-02T00:25:42;101227.13;;;18.04;100.00
40998;BME280;26740;45.944;12.480;2022-09-02T00:28:10;101225.50;;;17.93;100.00
40998;BME280;26740;45.944;12.480;2022-09-02T00:30:36;101225.81;;;17.91;100.00
40998;BME280;26740;45.944;12.480;2022-09-02T00:33:03;101224.66;;;17.92;100.00
40998;BME280;26740;45.944;12.480;2022-09-02T00:35:29;101223.50;;;17.98;100.00
40998;BME280;26740;45.944;12.480;2022-09-02T00:37:55;101227.97;;;17.99;100.00
40998;BME280;26740;45.944;12.480;2022-09-02T00:40:21;101220.06;;;18.07;100.00
40998;BME280;26740;45.944;12.480;2022-09-02T00:42:48;101219.22;;;18.06;100.00
40998;BME280;26740;45.944;12.480;2022-09-02T00:45:14;101218.34;;;18.11;100.00
40998;BME280;26740;45.944;12.480;2022-09-02T00:47:40;101220.56;;;18.14;100.00
40998;BME280;26740;45.944;12.480;2022-09-02T00:50:09;101220.34;;;18.05;100.00
40998;BME280;26740;45.944;12.480;2022-09-02T00:52:45;101215.53;;;18.11;100.00
40998;BME280;26740;45.944;12.480;2022-09-02T00:55:17;101219.38;;;18.20;100.00
40998;BME280;26740;45.944;12.480;2022-09-02T00:57:58;101215.56;;;18.35;100.00
40998;BME280;26740;45.944;12.480;2022-09-02T01:00:30;101219.50;;;18.39;100.00
40998;BME280;26740;45.944;12.480;2022-09-02T01:03:02;101223.97;;;18.40;100.00
40998;BME280;26740;45.944;12.480;2022-09-02T01:05:31;101220.84;;;18.42;100.00
40998;BME280;26740;45.944;12.480;2022-09-02T01:07:58;101217.66;;;18.53;100.00
40998;BME280;26740;45.944;12.480;2022-09-02T01:10:30;101225.81;;;18.55;100.00
40998;BME280;26740;45.944;12.480;2022-09-02T01:13:03;101222.06;;;18.60;100.00
40998;BME280;26740;45.944;12.480;2022-09-02T01:15:38;101225.66;;;18.41;100.00
40998;BME280;26740;45.944;12.480;2022-09-02T01:18:07;101220.66;;;18.33;100.00
40998;BME280;26740;45.944;12.480;2022-09-02T01:20:34;101217.13;;;18.22;100.00
40998;BME280;26740;45.944;12.480;2022-09-02T01:23:00;101216.38;;;18.11;100.00
40998;BME280;26740;45.944;12.480;2022-09-02T01:25:29;101219.25;;;18.01;100.00
40998;BME280;26740;45.944;12.480;2022-09-02T01:28:08;101211.78;;;17.91;100.00
40998;BME280;26740;45.944;12.480;2022-09-02T01:30:35;101214.00;;;17.84;100.00
40998;BME280;26740;45.944;12.480;2022-09-02T01:33:01;101215.22;;;17.73;100.00
40998;BME280;26740;45.944;12.480;2022-09-02T01:35:28;101206.22;;;17.76;100.00
40998;BME280;26740;45.944;12.480;2022-09-02T01:37:56;101207.38;;;17.70;100.00
40998;BME280;26740;45.944;12.480;2022-09-02T01:40:24;101212.78;;;17.61;100.00
40998;BME280;26740;45.944;12.480;2022-09-02T01:42:55;101210.91;;;17.51;100.00
40998;BME280;26740;45.944;12.480;2022-09-02T01:45:21;101213.19;;;17.44;100.00
40998;BME280;26740;45.944;12.480;2022-09-02T01:47:47;101205.03;;;17.48;100.00
40998;BME280;26740;45.944;12.480;2022-09-02T01:50:13;101213.69;;;17.51;100.00
40998;BME280;26740;45.944;12.480;2022-09-02T01:52:38;101209.16;;;17.55;100.00
40998;BME280;26740;45.944;12.480;2022-09-02T01:55:05;101216.75;;;17.60;100.00
40998;BME280;26740;45.944;12.480;2022-09-02T01:57:30;101212.75;;;17.66;100.00
40998;BME280;26740;45.944;12.480;2022-09-02T01:59:56;101219.44;;;17.75;100.00
40998;BME280;26740;45.944;12.480;2022-09-02T02:02:22;101222.78;;;17.77;100.00
40998;BME280;26740;45.944;12.480;2022-09-02T02:04:49;101217.03;;;17.58;100.00
40998;BME280;26740;45.944;12.480;2022-09-02T02:07:17;101216.47;;;17.56;100.00
40998;BME280;26740;45.944;12.480;2022-09-02T02:09:43;101211.75;;;17.47;100.00
40998;BME280;26740;45.944;12.480;2022-09-02T02:12:09;101212.66;;;17.37;100.00
40998;BME280;26740;45.944;12.480;2022-09-02T02:14:35;101209.00;;;17.36;100.00
40998;BME280;26740;45.944;12.480;2022-09-02T02:17:01;101217.16;;;17.33;100.00
40998;BME280;26740;45.944;12.480;2022-09-02T02:19:27;101221.41;;;17.30;100.00
40998;BME280;26740;45.944;12.480;2022-09-02T02:21:53;101212.66;;;17.37;100.00
40998;BME280;26740;45.944;12.480;2022-09-02T02:24:19;101222.28;;;17.20;100.00
40998;BME280;26740;45.944;12.480;2022-09-02T02:26:45;101219.50;;;17.15;100.00
40998;BME280;26740;45.944;12.480;2022-09-02T02:29:12;101214.75;;;17.11;100.00
40998;BME280;26740;45.944;12.480;2022-09-02T02:31:39;101211.72;;;17.02;100.00
40998;BME280;26740;45.944;12.480;2022-09-02T02:34:05;101211.06;;;17.20;100.00
40998;BME280;26740;45.944;12.480;2022-09-02T02:36:31;101210.47;;;17.23;100.00
40998;BME280;26740;45.944;12.480;2022-09-02T02:38:57;101208.81;;;17.22;100.00
40998;BME280;26740;45.944;12.480;2022-09-02T02:41:23;101204.88;;;17.23;100.00
40998;BME280;26740;45.944;12.480;2022-09-02T02:43:50;101198.94;;;17.30;100.00
40998;BME280;26740;45.944;12.480;2022-09-02T02:46:15;101198.94;;;17.30;100.00
40998;BME280;26740;45.944;12.480;2022-09-02T02:48:41;101199.44;;;17.42;100.00
40998;BME280;26740;45.944;12.480;2022-09-02T02:51:07;101197.16;;;17.44;100.00
40998;BME280;26740;45.944;12.480;2022-09-02T02:53:34;101193.56;;;17.39;100.00
40998;BME280;26740;45.944;12.480;2022-09-02T02:56:03;101187.66;;;17.40;100.00
40998;BME280;26740;45.944;12.480;2022-09-02T02:58:29;101189.66;;;17.35;100.00
40998;BME280;26740;45.944;12.480;2022-09-02T03:00:56;101181.78;;;17.37;100.00
40998;BME280;26740;45.944;12.480;2022-09-02T03:03:23;101179.88;;;17.27;100.00
40998;BME280;26740;45.944;12.480;2022-09-02T03:05:50;101186.13;;;17.19;100.00
40998;BME280;26740;45.944;12.480;2022-09-02T03:08:17;101178.56;;;17.14;100.00
40998;BME280;26740;45.944;12.480;2022-09-02T03:10:49;101176.84;;;17.18;100.00
40998;BME280;26740;45.944;12.480;2022-09-02T03:13:24;101172.41;;;17.12;100.00
40998;BME280;26740;45.944;12.480;2022-09-02T03:15:50;101179.94;;;17.17;100.00
40998;BME280;26740;45.944;12.480;2022-09-02T03:18:18;101166.97;;;17.31;100.00
40998;BME280;26740;45.944;12.480;2022-09-02T03:20:44;101172.81;;;17.35;100.00
40998;BME280;26740;45.944;12.480;2022-09-02T03:23:10;101176.22;;;17.32;100.00
40998;BME280;26740;45.944;12.480;2022-09-02T03:25:43;101167.56;;;17.23;100.00
40998;BME280;26740;45.944;12.480;2022-09-02T03:28:10;101174.03;;;17.18;100.00
40998;BME280;26740;45.944;12.480;2022-09-02T03:30:39;101170.38;;;17.18;100.00
40998;BME280;26740;45.944;12.480;2022-09-02T03:33:05;101174.28;;;17.22;100.00
40998;BME280;26740;45.944;12.480;2022-09-02T03:35:33;101179.88;;;17.27;100.00
40998;BME280;26740;45.944;12.480;2022-09-02T03:38:02;101177.38;;;17.20;100.00
40998;BME280;26740;45.944;12.480;2022-09-02T03:40:27;101173.75;;;17.20;100.00
40998;BME280;26740;45.944;12.480;2022-09-02T03:42:54;101174.41;;;17.01;100.00
40998;BME280;26740;45.944;12.480;2022-09-02T03:45:21;101169.63;;;17.02;100.00
40998;BME280;26740;45.944;12.480;2022-09-02T03:47:47;101172.69;;;17.05;100.00
40998;BME280;26740;45.944;12.480;2022-09-02T03:50:25;101169.03;;;17.10;100.00
40998;BME280;26740;45.944;12.480;2022-09-02T03:52:51;101166.50;;;17.14;100.00
40998;BME280;26740;45.944;12.480;2022-09-02T03:55:18;101165.06;;;17.16;100.00
40998;BME280;26740;45.944;12.480;2022-09-02T03:57:44;101161.47;;;17.11;100.00
40998;BME280;26740;45.944;12.480;2022-09-02T04:00:12;101159.75;;;17.10;100.00
40998;BME280;26740;45.944;12.480;2022-09-02T04:02:38;101163.19;;;17.01;100.00
40998;BME280;26740;45.944;12.480;2022-09-02T04:05:04;101165.41;;;17.04;100.00
40998;BME280;26740;45.944;12.480;2022-09-02T04:07:31;101156.44;;;17.02;100.00
40998;BME280;26740;45.944;12.480;2022-09-02T04:09:56;101161.44;;;17.16;100.00
40998;BME280;26740;45.944;12.480;2022-09-02T04:12:23;101165.31;;;17.20;100.00
40998;BME280;26740;45.944;12.480;2022-09-02T04:14:48;101160.91;;;17.09;100.00
40998;BME280;26740;45.944;12.480;2022-09-02T04:17:14;101150.03;;;16.97;100.00
40998;BME280;26740;45.944;12.480;2022-09-02T04:19:39;101147.78;;;16.94;100.00
40998;BME280;26740;45.944;12.480;2022-09-02T04:22:06;101154.00;;;16.91;100.00
40998;BME280;26740;45.944;12.480;2022-09-02T04:24:33;101160.44;;;16.91;100.00
40998;BME280;26740;45.944;12.480;2022-09-02T04:26:59;101152.00;;;16.96;100.00
40998;BME280;26740;45.944;12.480;2022-09-02T04:29:26;101151.13;;;16.96;100.00
40998;BME280;26740;45.944;12.480;2022-09-02T04:31:52;101153.91;;;17.01;100.00
40998;BME280;26740;45.944;12.480;2022-09-02T04:34:19;101147.19;;;17.02;100.00
40998;BME280;26740;45.944;12.480;2022-09-02T04:36:44;101156.19;;;16.99;100.00
40998;BME280;26740;45.944;12.480;2022-09-02T04:39:10;101157.22;;;17.13;100.00
40998;BME280;26740;45.944;12.480;2022-09-02T04:41:37;101155.75;;;17.26;100.00
40998;BME280;26740;45.944;12.480;2022-09-02T04:44:03;101161.16;;;17.12;100.00
40998;BME280;26740;45.944;12.480;2022-09-02T04:46:29;101156.16;;;17.04;100.00
40998;BME280;26740;45.944;12.480;2022-09-02T04:48:55;101160.31;;;17.12;100.00
40998;BME280;26740;45.944;12.480;2022-09-02T04:51:24;101156.16;;;17.04;100.00
40998;BME280;26740;45.944;12.480;2022-09-02T04:53:52;101160.94;;;17.03;100.00
40998;BME280;26740;45.944;12.480;2022-09-02T04:56:24;101164.53;;;17.09;100.00
40998;BME280;26740;45.944;12.480;2022-09-02T04:58:50;101161.19;;;17.07;100.00
40998;BME280;26740;45.944;12.480;2022-09-02T05:01:20;101161.97;;;17.18;100.00
40998;BME280;26740;45.944;12.480;2022-09-02T05:03:47;101163.75;;;17.48;100.00
40998;BME280;26740;45.944;12.480;2022-09-02T05:06:20;101158.81;;;17.69;100.00
40998;BME280;26740;45.944;12.480;2022-09-02T05:08:46;101177.38;;;18.34;100.00
40998;BME280;26740;45.944;12.480;2022-09-02T05:11:16;101181.41;;;18.76;100.00
40998;BME280;26740;45.944;12.480;2022-09-02T05:13:44;101174.13;;;19.37;100.00
40998;BME280;26740;45.944;12.480;2022-09-02T05:16:18;101183.75;;;20.07;100.00
40998;BME280;26740;45.944;12.480;2022-09-02T05:18:45;101183.44;;;20.55;100.00
40998;BME280;26740;45.944;12.480;2022-09-02T05:21:11;101189.63;;;20.71;100.00
40998;BME280;26740;45.944;12.480;2022-09-02T05:23:37;101191.22;;;21.55;100.00
40998;BME280;26740;45.944;12.480;2022-09-02T05:26:07;101187.47;;;22.28;100.00
40998;BME280;26740;45.944;12.480;2022-09-02T05:28:33;101191.03;;;22.74;100.00
40998;BME280;26740;45.944;12.480;2022-09-02T05:31:04;101191.25;;;22.01;100.00
40998;BME280;26740;45.944;12.480;2022-09-02T05:33:32;101188.19;;;21.88;100.00
40998;BME280;26740;45.944;12.480;2022-09-02T05:35:58;101191.31;;;22.32;100.00
40998;BME280;26740;45.944;12.480;2022-09-02T05:38:24;101198.06;;;22.53;100.00
40998;BME280;26740;45.944;12.480;2022-09-02T05:40:50;101193.19;;;22.77;100.00
40998;BME280;26740;45.944;12.480;2022-09-02T05:43:16;101196.94;;;22.55;100.00
40998;BME280;26740;45.944;12.480;2022-09-02T05:45:42;101200.84;;;23.16;100.00
40998;BME280;26740;45.944;12.480;2022-09-02T05:48:07;101211.75;;;23.49;100.00
40998;BME280;26740;45.944;12.480;2022-09-02T05:51:11;101210.28;;;24.04;100.00
40998;BME280;26740;45.944;12.480;2022-09-02T05:53:37;101210.50;;;24.64;100.00
40998;BME280;26740;45.944;12.480;2022-09-02T05:56:04;101216.50;;;24.71;100.00
40998;BME280;26740;45.944;12.480;2022-09-02T05:58:30;101216.91;;;24.26;100.00
40998;BME280;26740;45.944;12.480;2022-09-02T06:00:56;101218.44;;;24.23;100.00
40998;BME280;26740;45.944;12.480;2022-09-02T06:03:23;101223.09;;;24.01;100.00
40998;BME280;26740;45.944;12.480;2022-09-02T06:05:58;101219.91;;;23.33;100.00
40998;BME280;26740;45.944;12.480;2022-09-02T06:08:23;101216.41;;;22.87;100.00
40998;BME280;26740;45.944;12.480;2022-09-02T06:10:49;101216.91;;;22.58;100.00
40998;BME280;26740;45.944;12.480;2022-09-02T06:13:15;101211.56;;;22.03;100.00
40998;BME280;26740;45.944;12.480;2022-09-02T06:15:45;101217.72;;;22.05;100.00
40998;BME280;26740;45.944;12.480;2022-09-02T06:18:11;101208.31;;;22.18;100.00
40998;BME280;26740;45.944;12.480;2022-09-02T06:20:41;101213.56;;;21.80;100.00
40998;BME280;26740;45.944;12.480;2022-09-02T06:23:08;101218.47;;;21.51;100.00
40998;BME280;26740;45.944;12.480;2022-09-02T06:25:38;101219.59;;;21.50;100.00
40998;BME280;26740;45.944;12.480;2022-09-02T06:28:05;101213.75;;;21.83;100.00
40998;BME280;26740;45.944;12.480;2022-09-02T06:30:31;101209.50;;;21.94;100.00
40998;BME280;26740;45.944;12.480;2022-09-02T06:32:57;101212.53;;;21.62;100.00
40998;BME280;26740;45.944;12.480;2022-09-02T06:35:23;101209.88;;;22.24;100.00
40998;BME280;26740;45.944;12.480;2022-09-02T06:37:48;101207.69;;;22.44;100.00
40998;BME280;26740;45.944;12.480;2022-09-02T06:40:14;101216.50;;;22.74;100.00
40998;BME280;26740;45.944;12.480;2022-09-02T06:42:40;101214.38;;;22.48;100.00
40998;BME280;26740;45.944;12.480;2022-09-02T06:45:07;101206.09;;;23.00;100.00
40998;BME280;26740;45.944;12.480;2022-09-02T06:47:33;101210.25;;;23.78;100.00
40998;BME280;26740;45.944;12.480;2022-09-02T06:49:59;101213.28;;;23.81;100.00
40998;BME280;26740;45.944;12.480;2022-09-02T06:52:26;101209.25;;;23.91;100.00
40998;BME280;26740;45.944;12.480;2022-09-02T06:54:52;101206.72;;;23.37;100.00
40998;BME280;26740;45.944;12.480;2022-09-02T06:57:19;101210.53;;;23.33;100.00
40998;BME280;26740;45.944;12.480;2022-09-02T06:59:46;101209.91;;;23.53;100.00
40998;BME280;26740;45.944;12.480;2022-09-02T07:02:12;101211.41;;;23.59;100.00
40998;BME280;26740;45.944;12.480;2022-09-02T07:04:40;101216.13;;;23.90;98.10
40998;BME280;26740;45.944;12.480;2022-09-02T07:07:24;101214.75;;;24.05;96.01
40998;BME280;26740;45.944;12.480;2022-09-02T07:09:50;101224.91;;;24.88;95.76
40998;BME280;26740;45.944;12.480;2022-09-02T07:12:17;101223.50;;;25.03;89.05
40998;BME280;26740;45.944;12.480;2022-09-02T07:14:43;101221.88;;;25.32;92.30
40998;BME280;26740;45.944;12.480;2022-09-02T07:17:12;101217.25;;;25.69;90.15
40998;BME280;26740;45.944;12.480;2022-09-02T07:19:42;101221.09;;;25.95;84.94
40998;BME280;26740;45.944;12.480;2022-09-02T07:22:09;101215.72;;;26.60;85.02
40998;BME280;26740;45.944;12.480;2022-09-02T07:24:36;101219.94;;;26.41;80.61
40998;BME280;26740;45.944;12.480;2022-09-02T07:27:02;101228.13;;;26.43;84.40
40998;BME280;26740;45.944;12.480;2022-09-02T07:29:28;101231.59;;;26.48;78.27
40998;BME280;26740;45.944;12.480;2022-09-02T07:31:54;101231.84;;;27.38;66.11
40998;BME280;26740;45.944;12.480;2022-09-02T07:34:20;101223.13;;;26.85;66.38
40998;BME280;26740;45.944;12.480;2022-09-02T07:36:46;101226.00;;;26.98;68.87
40998;BME280;26740;45.944;12.480;2022-09-02T07:39:14;101224.59;;;26.13;69.27
40998;BME280;26740;45.944;12.480;2022-09-02T07:41:42;101230.25;;;26.00;68.38
40998;BME280;26740;45.944;12.480;2022-09-02T07:44:08;101226.84;;;25.86;68.95
40998;BME280;26740;45.944;12.480;2022-09-02T07:46:34;101222.84;;;25.57;72.42
40998;BME280;26740;45.944;12.480;2022-09-02T07:49:03;101224.81;;;26.86;68.04
40998;BME280;26740;45.944;12.480;2022-09-02T07:51:31;101221.25;;;27.27;64.08
40998;BME280;26740;45.944;12.480;2022-09-02T07:53:58;101212.19;;;27.61;66.91
40998;BME280;26740;45.944;12.480;2022-09-02T07:56:24;101214.28;;;28.17;66.50
40998;BME280;26740;45.944;12.480;2022-09-02T07:58:50;101213.28;;;28.54;67.92
40998;BME280;26740;45.944;12.480;2022-09-02T08:01:17;101218.84;;;28.50;59.73
40998;BME280;26740;45.944;12.480;2022-09-02T08:03:45;101216.19;;;28.13;63.12
40998;BME280;26740;45.944;12.480;2022-09-02T08:06:11;101217.53;;;28.04;61.71
40998;BME280;26740;45.944;12.480;2022-09-02T08:08:39;101218.69;;;27.74;62.38
40998;BME280;26740;45.944;12.480;2022-09-02T08:11:06;101219.44;;;28.56;66.01
40998;BME280;26740;45.944;12.480;2022-09-02T08:13:32;101224.06;;;29.76;50.88
40998;BME280;26740;45.944;12.480;2022-09-02T08:15:57;101227.31;;;29.58;52.52
40998;BME280;26740;45.944;12.480;2022-09-02T08:18:24;101217.88;;;31.25;50.58
40998;BME280;26740;45.944;12.480;2022-09-02T08:20:50;101225.66;;;32.83;49.61
40998;BME280;26740;45.944;12.480;2022-09-02T08:23:16;101224.91;;;31.54;49.15
40998;BME280;26740;45.944;12.480;2022-09-02T08:25:42;101219.13;;;31.00;48.91
40998;BME280;26740;45.944;12.480;2022-09-02T08:28:07;101219.13;;;31.00;42.24
40998;BME280;26740;45.944;12.480;2022-09-02T08:30:33;101216.44;;;31.38;47.67
40998;BME280;26740;45.944;12.480;2022-09-02T08:32:59;101209.81;;;31.61;46.85
40998;BME280;26740;45.944;12.480;2022-09-02T08:35:25;101211.84;;;30.84;42.37
40998;BME280;26740;45.944;12.480;2022-09-02T08:37:51;101211.72;;;32.88;41.22
40998;BME280;26740;45.944;12.480;2022-09-02T08:40:20;101209.91;;;31.98;40.04
40998;BME280;26740;45.944;12.480;2022-09-02T08:42:49;101207.91;;;32.36;44.19
40998;BME280;26740;45.944;12.480;2022-09-02T08:45:27;101215.31;;;31.46;41.93
40998;BME280;26740;45.944;12.480;2022-09-02T08:48:07;101207.19;;;30.75;45.71
40998;BME280;26740;45.944;12.480;2022-09-02T08:50:39;101213.53;;;30.42;44.58
40998;BME280;26740;45.944;12.480;2022-09-02T08:55:54;101218.72;;;27.62;50.06
40998;BME280;26740;45.944;12.480;2022-09-02T08:58:28;101220.66;;;27.46;48.49
40998;BME280;26740;45.944;12.480;2022-09-02T09:04:02;101214.00;;;26.34;49.13
40998;BME280;26740;45.944;12.480;2022-09-02T09:12:14;101207.47;;;28.82;42.56
40998;BME280;26740;45.944;12.480;2022-09-02T09:17:50;101202.53;;;28.51;50.04
40998;BME280;26740;45.944;12.480;2022-09-02T09:20:23;101209.84;;;27.79;51.84
40998;BME280;26740;45.944;12.480;2022-09-02T09:22:51;101208.06;;;27.47;48.62
40998;BME280;26740;45.944;12.480;2022-09-02T09:25:21;101196.91;;;26.80;48.01
40998;BME280;26740;45.944;12.480;2022-09-02T09:27:52;101191.31;;;27.33;49.41
40998;BME280;26740;45.944;12.480;2022-09-02T09:30:18;101198.69;;;27.87;48.09
40998;BME280;26740;45.944;12.480;2022-09-02T09:32:50;101193.88;;;28.47;43.42
40998;BME280;26740;45.944;12.480;2022-09-02T09:35:17;101183.97;;;28.29;48.07
40998;BME280;26740;45.944;12.480;2022-09-02T09:37:53;101180.22;;;28.41;42.80
40998;BME280;26740;45.944;12.480;2022-09-02T09:42:47;101174.94;;;29.58;45.48
40998;BME280;26740;45.944;12.480;2022-09-02T09:45:26;101183.53;;;29.58;43.29
40998;BME280;26740;45.944;12.480;2022-09-02T09:48:22;101169.59;;;28.25;43.42
40998;BME280;26740;45.944;12.480;2022-09-02T09:53:26;101161.91;;;29.76;41.79
40998;BME280;26740;45.944;12.480;2022-09-02T09:55:58;101168.03;;;29.59;41.61
40998;BME280;26740;45.944;12.480;2022-09-02T10:06:22;101156.19;;;33.40;36.52
40998;BME280;26740;45.944;12.480;2022-09-02T10:08:57;101152.88;;;34.26;33.36
40998;BME280;26740;45.944;12.480;2022-09-02T10:11:35;101155.97;;;33.70;32.96
40998;BME280;26740;45.944;12.480;2022-09-02T10:14:07;101151.13;;;33.96;35.22
40998;BME280;26740;45.944;12.480;2022-09-02T10:16:51;101162.66;;;33.92;34.01
40998;BME280;26740;45.944;12.480;2022-09-02T10:19:25;101155.41;;;33.43;34.63
40998;BME280;26740;45.944;12.480;2022-09-02T10:27:22;101145.31;;;31.51;37.88
40998;BME280;26740;45.944;12.480;2022-09-02T10:29:54;101136.47;;;31.06;42.00
40998;BME280;26740;45.944;12.480;2022-09-02T10:35:23;101134.91;;;28.55;44.24
40998;BME280;26740;45.944;12.480;2022-09-02T10:37:56;101138.53;;;27.39;46.97
40998;BME280;26740;45.944;12.480;2022-09-02T10:40:30;101139.88;;;27.70;45.51
40998;BME280;26740;45.944;12.480;2022-09-02T10:43:06;101136.97;;;28.54;46.14
40998;BME280;26740;45.944;12.480;2022-09-02T10:51:03;101136.97;;;29.06;48.07
40998;BME280;26740;45.944;12.480;2022-09-02T10:53:40;101134.41;;;29.01;46.81
40998;BME280;26740;45.944;12.480;2022-09-02T10:56:20;101132.38;;;29.01;44.33
40998;BME280;26740;45.944;12.480;2022-09-02T10:59:05;101125.09;;;29.20;49.11
40998;BME280;26740;45.944;12.480;2022-09-02T11:01:42;101137.50;;;29.11;46.34
40998;BME280;26740;45.944;12.480;2022-09-02T11:06:46;101127.22;;;29.07;51.17
40998;BME280;26740;45.944;12.480;2022-09-02T11:09:38;101126.03;;;28.92;48.22
40998;BME280;26740;45.944;12.480;2022-09-02T11:12:08;101127.75;;;29.12;44.48
40998;BME280;26740;45.944;12.480;2022-09-02T11:23:25;101124.69;;;29.76;46.19
40998;BME280;26740;45.944;12.480;2022-09-02T11:26:23;101116.91;;;30.62;44.96
40998;BME280;26740;45.944;12.480;2022-09-02T11:32:13;101125.41;;;32.03;38.00
40998;BME280;26740;45.944;12.480;2022-09-02T11:34:46;101127.28;;;32.63;37.32
40998;BME280;26740;45.944;12.480;2022-09-02T11:37:32;101130.72;;;32.38;36.69
40998;BME280;26740;45.944;12.480;2022-09-02T11:40:01;101130.22;;;33.25;38.60
40998;BME280;26740;45.944;12.480;2022-09-02T11:42:43;101130.84;;;33.01;33.87
40998;BME280;26740;45.944;12.480;2022-09-02T11:47:52;101110.81;;;30.67;39.24
40998;BME280;26740;45.944;12.480;2022-09-02T11:50:29;101120.97;;;31.71;37.58
40998;BME280;26740;45.944;12.480;2022-09-02T11:53:25;101121.56;;;31.54;35.15
40998;BME280;26740;45.944;12.480;2022-09-02T11:56:20;101123.03;;;31.74;36.94
40998;BME280;26740;45.944;12.480;2022-09-02T11:58:51;101116.09;;;32.09;40.26
40998;BME280;26740;45.944;12.480;2022-09-02T12:01:31;101122.63;;;32.47;36.06
40998;BME280;26740;45.944;12.480;2022-09-02T12:04:21;101112.91;;;33.18;38.09
40998;BME280;26740;45.944;12.480;2022-09-02T12:17:34;101099.34;;;29.98;42.96
40998;BME280;26740;45.944;12.480;2022-09-02T12:20:04;101104.47;;;29.69;38.88
40998;BME280;26740;45.944;12.480;2022-09-02T12:22:34;101089.91;;;30.40;42.50
40998;BME280;26740;45.944;12.480;2022-09-02T12:27:50;101089.47;;;30.38;40.84
40998;BME280;26740;45.944;12.480;2022-09-02T12:33:44;101080.16;;;31.25;38.51
40998;BME280;26740;45.944;12.480;2022-09-02T12:44:45;101064.47;;;30.15;41.13
40998;BME280;26740;45.944;12.480;2022-09-02T12:52:49;101056.50;;;30.05;42.54
40998;BME280;26740;45.944;12.480;2022-09-02T12:55:22;101055.53;;;30.67;43.57
40998;BME280;26740;45.944;12.480;2022-09-02T12:57:52;101054.34;;;30.94;41.59
40998;BME280;26740;45.944;12.480;2022-09-02T13:03:38;101058.47;;;31.27;35.64
40998;BME280;26740;45.944;12.480;2022-09-02T13:09:06;101039.13;;;31.21;40.27
40998;BME280;26740;45.944;12.480;2022-09-02T13:12:03;101037.16;;;31.28;40.76
40998;BME280;26740;45.944;12.480;2022-09-02T13:15:00;101035.72;;;31.79;37.30
40998;BME280;26740;45.944;12.480;2022-09-02T13:17:46;101038.50;;;32.06;37.43
40998;BME280;26740;45.944;12.480;2022-09-02T13:28:54;101017.50;;;31.30;39.95
40998;BME280;26740;45.944;12.480;2022-09-02T13:31:26;101015.34;;;31.20;39.18
40998;BME280;26740;45.944;12.480;2022-09-02T13:34:04;101017.28;;;30.82;39.21
40998;BME280;26740;45.944;12.480;2022-09-02T13:36:44;101018.47;;;30.81;36.95
40998;BME280;26740;45.944;12.480;2022-09-02T13:39:17;101008.72;;;30.86;40.72
40998;BME280;26740;45.944;12.480;2022-09-02T13:41:43;101009.69;;;31.27;37.25
40998;BME280;26740;45.944;12.480;2022-09-02T13:44:22;101004.91;;;31.38;36.68
40998;BME280;26740;45.944;12.480;2022-09-02T13:47:03;101004.06;;;31.34;35.66
40998;BME280;26740;45.944;12.480;2022-09-02T13:49:36;101002.22;;;30.12;38.61
40998;BME280;26740;45.944;12.480;2022-09-02T13:52:14;101009.00;;;30.77;37.33
40998;BME280;26740;45.944;12.480;2022-09-02T13:54:45;101000.16;;;31.19;38.29
40998;BME280;26740;45.944;12.480;2022-09-02T13:57:18;101010.72;;;30.81;37.05
40998;BME280;26740;45.944;12.480;2022-09-02T13:59:48;101009.88;;;30.81;38.23
40998;BME280;26740;45.944;12.480;2022-09-02T14:02:21;100999.88;;;30.68;37.59
40998;BME280;26740;45.944;12.480;2022-09-02T14:04:50;100999.09;;;30.97;38.29
40998;BME280;26740;45.944;12.480;2022-09-02T14:07:29;100986.34;;;30.95;37.78
40998;BME280;26740;45.944;12.480;2022-09-02T14:09:57;100991.81;;;30.77;37.08
40998;BME280;26740;45.944;12.480;2022-09-02T14:12:26;100991.56;;;30.09;37.32
40998;BME280;26740;45.944;12.480;2022-09-02T14:14:53;100990.13;;;30.22;38.57
40998;BME280;26740;45.944;12.480;2022-09-02T14:17:24;100981.09;;;29.74;39.85
40998;BME280;26740;45.944;12.480;2022-09-02T14:19:52;100980.09;;;30.09;42.68
40998;BME280;26740;45.944;12.480;2022-09-02T14:22:33;100978.41;;;30.58;42.50
40998;BME280;26740;45.944;12.480;2022-09-02T14:25:11;100981.06;;;30.70;40.90
40998;BME280;26740;45.944;12.480;2022-09-02T14:27:46;100978.84;;;30.33;41.24
40998;BME280;26740;45.944;12.480;2022-09-02T14:30:28;100983.84;;;30.36;41.74
40998;BME280;26740;45.944;12.480;2022-09-02T14:33:15;100978.69;;;30.49;42.22